createdAt,value
2018-06-15T00:02:22.077Z,17.49
2018-06-15T00:04:51.071Z,17.48
2018-06-15T00:07:19.891Z,17.47
2018-06-15T00:09:48.760Z,17.46
2018-06-15T00:12:17.654Z,17.79
2018-06-15T00:14:46.532Z,17.55
2018-06-15T00:17:15.375Z,17.48
2018-06-15T00:19:44.253Z,17.46
2018-06-15T00:22:13.144Z,17.44
2018-06-15T00:24:42.028Z,17.40
2018-06-15T00:27:10.879Z,17.34
2018-06-15T00:29:39.740Z,17.34
2018-06-15T00:32:08.621Z,17.32
2018-06-15T00:34:37.500Z,17.33
2018-06-15T00:37:06.388Z,17.34
2018-06-15T00:39:35.260Z,17.33
2018-06-15T00:42:04.149Z,17.34
2018-06-15T00:44:33.049Z,17.32
2018-06-15T00:47:01.933Z,17.36
2018-06-15T00:49:30.827Z,17.39
2018-06-15T00:51:59.730Z,17.36
2018-06-15T00:54:28.619Z,17.34
2018-06-15T00:57:33.869Z,17.32
2018-06-15T01:00:02.752Z,17.26
2018-06-15T01:02:31.625Z,17.25
2018-06-15T01:05:00.539Z,17.25
2018-06-15T01:07:29.346Z,17.59
2018-06-15T01:09:58.222Z,17.38
2018-06-15T01:12:27.082Z,17.34
2018-06-15T01:14:55.940Z,17.34
2018-06-15T01:17:24.776Z,17.33
2018-06-15T01:19:53.679Z,17.32
2018-06-15T01:22:22.560Z,17.29
2018-06-15T01:24:51.450Z,17.27
2018-06-15T01:27:20.344Z,17.26
2018-06-15T01:29:49.222Z,17.22
2018-06-15T01:32:18.120Z,17.46
2018-06-15T01:34:47.008Z,17.20
2018-06-15T01:37:15.896Z,17.15
2018-06-15T01:39:44.772Z,17.13
2018-06-15T01:42:13.627Z,17.49
2018-06-15T01:44:42.495Z,17.27
2018-06-15T01:47:11.381Z,17.23
2018-06-15T01:49:40.290Z,17.20
2018-06-15T01:52:09.207Z,17.21
2018-06-15T01:54:38.100Z,17.21
2018-06-15T01:57:06.974Z,17.21
2018-06-15T01:59:35.865Z,17.21
2018-06-15T02:02:04.729Z,17.17
2018-06-15T02:04:33.576Z,17.14
2018-06-15T02:07:02.484Z,17.11
2018-06-15T02:09:31.410Z,17.12
2018-06-15T02:12:00.278Z,17.11
2018-06-15T02:14:29.155Z,17.13
2018-06-15T02:16:58.032Z,17.18
2018-06-15T02:19:26.882Z,17.50
2018-06-15T02:21:55.749Z,17.23
2018-06-15T02:24:24.629Z,17.18
2018-06-15T02:26:53.496Z,17.19
2018-06-15T02:29:22.403Z,17.20
2018-06-15T02:31:51.252Z,17.20
2018-06-15T02:34:20.126Z,17.56
2018-06-15T02:36:49.011Z,17.33
2018-06-15T02:39:17.849Z,17.29
2018-06-15T02:41:46.686Z,17.26
2018-06-15T02:44:15.565Z,17.20
2018-06-15T02:46:44.456Z,17.15
2018-06-15T02:49:13.326Z,17.16
2018-06-15T02:51:42.192Z,17.13
2018-06-15T02:54:11.072Z,17.11
2018-06-15T02:56:39.913Z,17.09
2018-06-15T02:59:08.815Z,17.12
2018-06-15T03:01:37.680Z,17.13
2018-06-15T03:04:06.551Z,17.14
2018-06-15T03:06:35.466Z,17.15
2018-06-15T03:09:05.846Z,17.14
2018-06-15T03:11:34.750Z,17.14
2018-06-15T03:14:03.681Z,17.16
2018-06-15T03:16:32.574Z,17.17
2018-06-15T03:19:01.477Z,17.17
2018-06-15T03:21:30.365Z,17.14
2018-06-15T03:23:59.202Z,17.14
2018-06-15T03:26:28.078Z,17.12
2018-06-15T03:28:56.930Z,17.14
2018-06-15T03:31:25.824Z,17.12
2018-06-15T03:33:54.864Z,17.13
2018-06-15T03:36:23.755Z,17.13
2018-06-15T03:38:52.638Z,17.13
2018-06-15T03:41:21.492Z,17.16
2018-06-15T03:43:50.361Z,17.17
2018-06-15T03:46:19.278Z,17.19
2018-06-15T03:48:48.323Z,17.49
2018-06-15T03:51:17.203Z,17.28
2018-06-15T03:53:46.070Z,17.25
2018-06-15T03:56:14.965Z,17.24
2018-06-15T03:58:43.823Z,17.22
2018-06-15T04:01:12.672Z,17.20
2018-06-15T04:03:41.549Z,17.19
2018-06-15T04:06:10.406Z,17.18
2018-06-15T04:08:39.242Z,17.19
2018-06-15T04:11:08.081Z,17.23
2018-06-15T04:13:37.062Z,17.23
2018-06-15T04:16:05.990Z,17.22
2018-06-15T04:18:34.899Z,17.21
2018-06-15T04:21:03.766Z,17.19
2018-06-15T04:23:32.625Z,17.12
2018-06-15T04:26:01.500Z,17.15
2018-06-15T04:28:30.350Z,17.11
2018-06-15T04:30:59.192Z,17.10
2018-06-15T04:33:28.073Z,17.10
2018-06-15T04:35:57.026Z,17.06
2018-06-15T04:38:25.850Z,17.11
2018-06-15T04:40:54.759Z,17.54
2018-06-15T04:43:23.656Z,17.75
2018-06-15T04:45:52.559Z,17.57
2018-06-15T04:48:21.400Z,17.54
2018-06-15T04:50:50.278Z,17.52
2018-06-15T04:53:19.132Z,17.50
2018-06-15T04:55:48.003Z,17.51
2018-06-15T04:58:16.854Z,17.52
2018-06-15T05:00:45.719Z,17.55
2018-06-15T05:03:15.187Z,17.59
2018-06-15T05:05:44.844Z,17.64
2018-06-15T05:08:13.732Z,18.03
2018-06-15T05:10:42.604Z,17.88
2018-06-15T05:13:11.745Z,17.83
2018-06-15T05:15:40.646Z,17.83
2018-06-15T05:18:09.465Z,17.85
2018-06-15T05:20:38.301Z,17.88
2018-06-15T05:23:07.159Z,17.87
2018-06-15T05:25:36.033Z,17.89
2018-06-15T05:28:04.903Z,17.91
2018-06-15T05:30:33.737Z,17.95
2018-06-15T05:33:02.641Z,17.99
2018-06-15T05:35:31.500Z,18.03
2018-06-15T05:38:00.361Z,18.09
2018-06-15T05:40:29.196Z,18.03
2018-06-15T05:42:58.063Z,18.10
2018-06-15T05:45:26.968Z,18.16
2018-06-15T05:47:55.840Z,18.18
2018-06-15T05:50:24.675Z,18.20
2018-06-15T05:52:53.524Z,18.23
2018-06-15T05:55:22.436Z,18.27
2018-06-15T05:57:51.272Z,18.34
2018-06-15T06:00:20.307Z,18.44
2018-06-15T06:02:49.170Z,18.68
2018-06-15T06:05:18.013Z,18.89
2018-06-15T06:07:46.891Z,18.95
2018-06-15T06:10:15.793Z,18.94
2018-06-15T06:12:44.673Z,18.94
2018-06-15T06:15:13.565Z,18.94
2018-06-15T06:17:42.543Z,18.91
2018-06-15T06:20:11.579Z,18.94
2018-06-15T06:22:40.438Z,19.00
2018-06-15T06:25:09.382Z,19.10
2018-06-15T06:27:38.266Z,19.21
2018-06-15T06:30:07.167Z,19.28
2018-06-15T06:32:36.103Z,19.31
2018-06-15T06:35:04.944Z,19.38
2018-06-15T06:37:33.851Z,19.44
2018-06-15T06:40:02.763Z,19.48
2018-06-15T06:42:31.663Z,19.48
2018-06-15T06:45:00.548Z,19.49
2018-06-15T06:47:29.433Z,19.47
2018-06-15T06:49:58.338Z,19.46
2018-06-15T06:52:27.217Z,19.46
2018-06-15T06:54:56.102Z,19.47
2018-06-15T06:57:24.956Z,19.49
2018-06-15T06:59:53.811Z,19.46
2018-06-15T07:02:22.669Z,19.45
2018-06-15T07:04:51.565Z,19.51
2018-06-15T07:07:20.490Z,19.30
2018-06-15T07:09:49.372Z,19.53
2018-06-15T07:12:18.292Z,19.58
2018-06-15T07:14:47.146Z,19.65
2018-06-15T07:17:16.025Z,19.66
2018-06-15T07:19:44.903Z,19.65
2018-06-15T07:22:13.792Z,19.68
2018-06-15T07:24:42.695Z,19.55
2018-06-15T07:27:11.573Z,19.53
2018-06-15T07:29:40.475Z,19.56
2018-06-15T07:32:09.457Z,19.62
2018-06-15T07:34:38.332Z,19.74
2018-06-15T07:37:07.342Z,20.08
2018-06-15T07:39:36.264Z,20.10
2018-06-15T07:42:05.222Z,20.56
2018-06-15T07:44:34.426Z,21.45
2018-06-15T07:47:03.717Z,22.00
2018-06-15T07:49:32.593Z,21.69
2018-06-15T07:52:01.454Z,21.44
2018-06-15T07:54:30.356Z,21.19
2018-06-15T07:56:59.297Z,20.98
2018-06-15T07:59:28.215Z,20.84
2018-06-15T08:01:57.060Z,21.05
2018-06-15T08:04:25.993Z,21.92
2018-06-15T08:06:54.852Z,22.13
2018-06-15T08:09:23.763Z,21.95
2018-06-15T08:11:52.627Z,21.94
2018-06-15T08:14:21.465Z,22.20
2018-06-15T08:16:50.306Z,22.13
2018-06-15T08:19:19.139Z,22.14
2018-06-15T08:21:47.991Z,22.15
2018-06-15T08:24:16.821Z,22.45
2018-06-15T08:26:45.676Z,22.99
2018-06-15T08:29:14.528Z,23.35
2018-06-15T08:31:43.367Z,24.20
2018-06-15T08:34:12.411Z,24.06
2018-06-15T08:36:43.042Z,23.79
2018-06-15T08:39:16.261Z,23.94
2018-06-15T08:41:45.067Z,23.74
2018-06-15T08:44:13.931Z,23.84
2018-06-15T08:46:42.832Z,25.31
2018-06-15T08:49:11.673Z,25.89
2018-06-15T08:51:40.508Z,25.42
2018-06-15T08:54:09.447Z,24.83
2018-06-15T08:56:38.313Z,24.12
2018-06-15T08:59:07.181Z,22.77
2018-06-15T09:01:36.045Z,22.58
2018-06-15T09:04:04.914Z,22.96
2018-06-15T09:06:33.749Z,22.68
2018-06-15T09:09:02.625Z,22.61
2018-06-15T09:11:31.508Z,22.53
2018-06-15T09:14:00.393Z,22.55
2018-06-15T09:16:29.253Z,22.51
2018-06-15T09:18:58.126Z,22.20
2018-06-15T09:21:26.988Z,21.89
2018-06-15T09:23:55.927Z,21.72
2018-06-15T09:26:24.824Z,22.07
2018-06-15T09:28:53.687Z,22.08
2018-06-15T09:31:22.641Z,21.71
2018-06-15T09:33:51.490Z,21.63
2018-06-15T09:36:20.414Z,21.73
2018-06-15T09:38:49.281Z,21.87
2018-06-15T09:41:18.132Z,21.93
2018-06-15T09:43:47.021Z,22.25
2018-06-15T09:46:15.929Z,23.40
2018-06-15T09:48:45.343Z,24.96
2018-06-15T09:51:15.516Z,26.40
2018-06-15T09:53:44.239Z,26.70
2018-06-15T09:56:13.279Z,26.86
2018-06-15T09:58:42.777Z,27.67
2018-06-15T10:01:11.986Z,28.02
2018-06-15T10:03:41.223Z,28.17
2018-06-15T10:06:10.181Z,28.12
2018-06-15T10:08:39.023Z,28.68
2018-06-15T10:11:07.892Z,28.14
2018-06-15T10:13:36.727Z,28.13
2018-06-15T10:16:05.747Z,27.83
2018-06-15T10:18:34.589Z,27.28
2018-06-15T10:21:03.489Z,27.17
2018-06-15T10:23:32.338Z,26.97
2018-06-15T10:26:01.197Z,28.00
2018-06-15T10:28:30.080Z,28.53
2018-06-15T10:30:58.938Z,28.90
2018-06-15T10:33:27.801Z,29.11
2018-06-15T10:35:57.043Z,29.36
2018-06-15T10:38:25.985Z,29.60
2018-06-15T10:40:54.851Z,28.18
2018-06-15T10:43:23.731Z,27.22
2018-06-15T10:45:52.599Z,26.80
2018-06-15T10:48:21.485Z,26.30
2018-06-15T10:50:50.410Z,27.16
2018-06-15T10:53:19.213Z,27.58
2018-06-15T10:55:48.078Z,28.15
2018-06-15T10:58:17.003Z,28.96
2018-06-15T11:00:45.862Z,29.56
2018-06-15T11:03:14.712Z,29.81
2018-06-15T11:05:43.621Z,30.49
2018-06-15T11:08:12.543Z,30.70
2018-06-15T11:10:41.433Z,30.97
2018-06-15T11:13:10.266Z,30.95
2018-06-15T11:15:39.131Z,31.50
2018-06-15T11:18:07.972Z,32.00
2018-06-15T11:20:36.861Z,31.35
2018-06-15T11:23:05.741Z,30.76
2018-06-15T11:25:34.673Z,29.17
2018-06-15T11:28:03.516Z,29.47
2018-06-15T11:30:32.366Z,29.47
2018-06-15T11:33:01.281Z,29.71
2018-06-15T11:35:30.180Z,29.92
2018-06-15T11:37:59.061Z,30.41
2018-06-15T11:40:28.060Z,31.95
2018-06-15T11:42:56.941Z,31.17
2018-06-15T11:45:25.893Z,30.55
2018-06-15T11:47:54.845Z,29.66
2018-06-15T11:50:23.864Z,28.88
2018-06-15T11:52:53.051Z,28.32
2018-06-15T11:55:21.966Z,28.18
2018-06-15T11:57:53.902Z,28.62
2018-06-15T12:00:22.788Z,28.69
2018-06-15T12:02:51.703Z,28.04
2018-06-15T12:05:20.603Z,28.44
2018-06-15T12:07:49.517Z,28.62
2018-06-15T12:10:18.369Z,28.43
2018-06-15T12:12:47.275Z,28.35
2018-06-15T12:15:16.153Z,28.10
2018-06-15T12:17:45.032Z,28.01
2018-06-15T12:20:13.902Z,27.95
2018-06-15T12:22:42.759Z,28.30
2018-06-15T12:25:11.610Z,28.08
2018-06-15T12:27:40.687Z,27.44
2018-06-15T12:30:09.624Z,27.50
2018-06-15T12:32:38.574Z,27.68
2018-06-15T12:35:07.489Z,27.77
2018-06-15T12:37:36.380Z,27.67
2018-06-15T12:40:05.363Z,27.50
2018-06-15T12:42:34.251Z,27.50
2018-06-15T12:45:03.206Z,27.81
2018-06-15T12:47:32.032Z,27.68
2018-06-15T12:50:01.509Z,27.78
2018-06-15T12:52:30.917Z,27.93
2018-06-15T12:55:00.151Z,27.96
2018-06-15T12:57:29.333Z,27.62
2018-06-15T12:59:58.415Z,26.82
2018-06-15T13:02:27.957Z,26.68
2018-06-15T13:04:57.213Z,26.81
2018-06-15T13:07:26.484Z,26.85
2018-06-15T13:09:55.662Z,26.56
2018-06-15T13:12:24.892Z,26.61
2018-06-15T13:14:54.027Z,26.32
2018-06-15T13:17:25.288Z,26.16
2018-06-15T13:19:57.651Z,26.06
2018-06-15T13:22:26.739Z,26.35
2018-06-15T13:24:55.936Z,26.59
2018-06-15T13:27:25.044Z,26.01
2018-06-15T13:29:54.124Z,26.25
2018-06-15T13:32:23.556Z,26.60
2018-06-15T13:34:52.683Z,26.87
2018-06-15T13:37:22.753Z,27.04
2018-06-15T13:39:52.120Z,27.04
2018-06-15T13:42:23.806Z,26.93
2018-06-15T13:44:53.109Z,26.72
2018-06-15T13:47:22.267Z,26.81
2018-06-15T13:49:51.539Z,26.92
2018-06-15T13:52:20.555Z,26.97
2018-06-15T13:54:52.715Z,26.67
2018-06-15T13:57:21.757Z,26.65
2018-06-15T13:59:51.353Z,26.73
2018-06-15T14:02:20.252Z,26.73
2018-06-15T14:04:49.567Z,26.82
2018-06-15T14:07:21.351Z,26.93
2018-06-15T14:09:50.707Z,26.48
2018-06-15T14:12:19.814Z,26.33
2018-06-15T14:14:48.920Z,25.89
2018-06-15T14:17:18.022Z,25.77
2018-06-15T14:19:47.109Z,25.82
2018-06-15T14:22:17.061Z,25.66
2018-06-15T14:24:46.498Z,25.69
2018-06-15T14:27:15.569Z,25.54
2018-06-15T14:29:44.923Z,25.69
2018-06-15T14:32:14.263Z,25.82
2018-06-15T14:34:44.573Z,25.81
2018-06-15T14:37:16.539Z,25.92
2018-06-15T14:39:42.692Z,25.43
2018-06-15T14:46:18.135Z,24.87
2018-06-15T14:49:30.036Z,25.07
2018-06-15T14:52:23.232Z,25.31
2018-06-15T14:55:22.233Z,25.68
2018-06-15T14:58:11.581Z,25.96
2018-06-15T15:01:00.482Z,25.85
2018-06-15T15:03:44.208Z,25.67
2018-06-15T15:06:20.529Z,25.60
2018-06-15T15:09:10.302Z,25.54
2018-06-15T15:11:56.381Z,26.05
2018-06-15T15:14:38.243Z,26.40
2018-06-15T15:17:26.745Z,26.40
2018-06-15T15:19:57.634Z,26.64
2018-06-15T15:22:37.947Z,26.67
2018-06-15T15:25:10.519Z,26.75
2018-06-15T15:27:54.991Z,26.71
2018-06-15T15:30:43.388Z,26.68
2018-06-15T15:33:36.026Z,25.88
2018-06-15T15:36:26.031Z,25.72
2018-06-15T15:39:12.125Z,25.74
2018-06-15T15:42:00.274Z,25.71
2018-06-15T15:44:37.491Z,25.83
2018-06-15T15:47:18.090Z,26.10
2018-06-15T15:49:58.918Z,26.05
2018-06-15T15:52:31.388Z,26.03
2018-06-15T15:55:02.850Z,25.99
2018-06-15T15:58:06.578Z,25.92
2018-06-15T16:01:01.698Z,25.73
2018-06-15T16:03:41.353Z,25.57
2018-06-15T16:06:23.813Z,25.54
2018-06-15T16:09:00.661Z,25.45
2018-06-15T16:11:42.831Z,25.45
2018-06-15T16:14:14.635Z,25.40
2018-06-15T16:16:51.825Z,25.32
2018-06-15T16:19:45.447Z,25.26
2018-06-15T16:22:43.186Z,25.03
2018-06-15T16:25:25.365Z,25.04
2018-06-15T16:27:59.997Z,24.99
2018-06-15T16:30:34.984Z,24.94
2018-06-15T16:33:08.508Z,24.90
2018-06-15T16:38:44.792Z,24.86
2018-06-15T16:41:13.980Z,24.85
2018-06-15T16:43:43.430Z,24.80
2018-06-15T16:46:12.713Z,24.65
2018-06-15T16:48:42.135Z,24.53
2018-06-15T16:51:11.435Z,24.72
2018-06-15T16:53:42.079Z,24.83
2018-06-15T16:56:11.268Z,24.87
2018-06-15T16:58:40.669Z,24.97
2018-06-15T17:01:10.082Z,25.08
2018-06-15T17:03:39.403Z,25.19
2018-06-15T17:06:08.809Z,25.19
2018-06-15T17:08:38.168Z,25.45
2018-06-15T17:11:07.465Z,25.62
2018-06-15T17:13:39.046Z,25.67
2018-06-15T17:16:08.665Z,25.69
2018-06-15T17:18:38.220Z,25.70
2018-06-15T17:21:07.295Z,25.70
2018-06-15T17:23:36.432Z,25.77
2018-06-15T17:26:05.600Z,25.78
2018-06-15T17:28:35.023Z,25.63
2018-06-15T17:31:06.343Z,25.50
2018-06-15T17:33:35.556Z,25.29
2018-06-15T17:36:04.775Z,25.28
2018-06-15T17:38:34.295Z,25.34
2018-06-15T17:41:03.802Z,25.34
2018-06-15T17:43:33.016Z,25.49
2018-06-15T17:46:05.278Z,25.39
2018-06-15T17:48:34.745Z,25.35
2018-06-15T17:51:05.374Z,25.31
2018-06-15T17:53:34.397Z,25.12
2018-06-15T17:56:06.335Z,25.07
2018-06-15T17:58:35.821Z,24.87
2018-06-15T18:01:05.667Z,24.86
2018-06-15T18:03:35.075Z,24.81
2018-06-15T18:06:04.205Z,24.72
2018-06-15T18:08:33.479Z,24.64
2018-06-15T18:11:02.789Z,24.57
2018-06-15T18:13:32.042Z,24.52
2018-06-15T18:16:01.352Z,24.50
2018-06-15T18:18:30.621Z,24.43
2018-06-15T18:21:00.055Z,24.40
2018-06-15T18:23:29.057Z,24.55
2018-06-15T18:25:58.326Z,24.48
2018-06-15T18:28:27.660Z,24.42
2018-06-15T18:30:56.850Z,24.37
2018-06-15T18:33:26.737Z,24.34
2018-06-15T18:35:59.542Z,24.27
2018-06-15T18:38:28.937Z,24.25
2018-06-15T18:41:00.830Z,24.11
2018-06-15T18:43:30.089Z,24.08
2018-06-15T18:45:59.300Z,24.05
2018-06-15T18:48:28.631Z,24.08
2018-06-15T18:50:57.681Z,23.97
2018-06-15T18:53:27.203Z,23.96
2018-06-15T18:55:58.122Z,24.00
2018-06-15T18:58:27.599Z,23.84
2018-06-15T19:00:57.271Z,23.93
2018-06-15T19:03:26.670Z,23.76
2018-06-15T19:06:01.033Z,23.65
2018-06-15T19:08:30.523Z,23.51
2018-06-15T19:10:59.644Z,23.41
2018-06-15T19:13:29.264Z,23.45
2018-06-15T19:15:59.071Z,23.27
2018-06-15T19:18:28.553Z,23.13
2018-06-15T19:20:59.322Z,23.19
2018-06-15T19:23:28.683Z,22.85
2018-06-15T19:25:57.877Z,22.73
2018-06-15T19:28:27.031Z,22.61
2018-06-15T19:30:56.166Z,22.46
2018-06-15T19:33:25.365Z,22.39
2018-06-15T19:35:54.798Z,22.29
2018-06-15T19:38:24.218Z,22.21
2018-06-15T19:40:53.663Z,22.14
2018-06-15T19:43:22.890Z,22.07
2018-06-15T19:45:54.679Z,21.93
2018-06-15T19:48:24.503Z,21.80
2018-06-15T19:50:53.770Z,21.65
2018-06-15T19:53:22.951Z,21.52
2018-06-15T19:55:52.302Z,21.45
2018-06-15T19:58:21.518Z,21.33
2018-06-15T20:00:50.642Z,21.24
2018-06-15T20:03:19.715Z,21.18
2018-06-15T20:05:49.272Z,21.13
2018-06-15T20:08:18.419Z,21.04
2018-06-15T20:10:47.707Z,20.89
2018-06-15T20:13:16.685Z,20.81
2018-06-15T20:15:46.022Z,20.77
2018-06-15T20:18:15.394Z,20.74
2018-06-15T20:20:47.646Z,20.70
2018-06-15T20:23:17.163Z,20.60
2018-06-15T20:25:48.751Z,20.47
2018-06-15T20:28:18.281Z,20.38
2018-06-15T20:30:47.693Z,20.53
2018-06-15T20:33:16.505Z,20.31
2018-06-15T20:35:45.419Z,20.22
2018-06-15T20:38:14.308Z,20.05
2018-06-15T20:40:43.200Z,19.95
2018-06-15T20:43:12.376Z,19.86
2018-06-15T20:45:41.223Z,19.82
2018-06-15T20:48:10.072Z,19.74
2018-06-15T20:50:39.069Z,19.70
2018-06-15T20:53:07.950Z,19.67
2018-06-15T20:55:43.083Z,19.69
2018-06-15T20:58:11.979Z,19.59
2018-06-15T21:00:40.849Z,19.57
2018-06-15T21:03:09.714Z,19.52
2018-06-15T21:05:38.650Z,19.49
2018-06-15T21:08:07.585Z,19.43
2018-06-15T21:10:36.812Z,19.37
2018-06-15T21:13:05.970Z,19.25
2018-06-15T21:15:34.890Z,19.22
2018-06-15T21:18:03.863Z,19.17
2018-06-15T21:20:32.733Z,19.06
2018-06-15T21:23:01.641Z,19.03
2018-06-15T21:25:33.129Z,19.05
2018-06-15T21:28:01.966Z,19.03
2018-06-15T21:30:30.899Z,19.02
2018-06-15T21:32:59.789Z,18.96
2018-06-15T21:35:28.662Z,18.92
2018-06-15T21:37:57.690Z,18.83
2018-06-15T21:40:26.548Z,18.78
2018-06-15T21:42:55.445Z,18.79
2018-06-15T21:45:24.313Z,18.77
2018-06-15T21:47:53.197Z,18.74
2018-06-15T21:50:22.137Z,18.64
2018-06-15T21:52:51.053Z,18.40
2018-06-15T21:55:20.001Z,18.35
2018-06-15T21:57:48.766Z,18.33
2018-06-15T22:00:17.705Z,18.47
2018-06-15T22:02:46.580Z,18.31
2018-06-15T22:05:15.447Z,18.36
2018-06-15T22:07:44.307Z,18.35
2018-06-15T22:10:13.162Z,18.28
2018-06-15T22:12:42.120Z,18.27
2018-06-15T22:15:11.117Z,18.25
2018-06-15T22:17:40.104Z,18.20
2018-06-15T22:20:11.412Z,18.17
2018-06-15T22:22:40.250Z,18.13
2018-06-15T22:25:09.167Z,18.10
2018-06-15T22:27:38.462Z,18.08
2018-06-15T22:30:07.860Z,18.04
2018-06-15T22:32:36.752Z,18.07
2018-06-15T22:35:05.895Z,18.08
2018-06-15T22:37:34.834Z,18.06
2018-06-15T22:40:03.708Z,18.04
2018-06-15T22:42:34.260Z,18.04
2018-06-15T22:45:03.197Z,18.03
2018-06-15T22:47:32.061Z,17.97
2018-06-15T22:50:00.921Z,17.96
2018-06-15T22:52:29.781Z,17.95
2018-06-15T22:54:58.716Z,17.94
2018-06-15T22:57:27.478Z,17.94
2018-06-15T22:59:56.360Z,17.92
2018-06-15T23:02:25.276Z,17.90
2018-06-15T23:04:57.467Z,17.88
2018-06-15T23:07:26.365Z,18.16
2018-06-15T23:09:55.283Z,17.98
2018-06-15T23:12:24.130Z,17.93
2018-06-15T23:14:52.962Z,17.89
2018-06-15T23:17:21.846Z,17.83
2018-06-15T23:19:50.740Z,17.86
2018-06-15T23:22:19.623Z,17.93
2018-06-15T23:24:48.584Z,17.85
2018-06-15T23:27:23.707Z,17.79
2018-06-15T23:29:52.586Z,17.74
2018-06-15T23:32:21.441Z,17.68
2018-06-15T23:34:50.873Z,17.74
2018-06-15T23:37:19.743Z,18.01
2018-06-15T23:39:48.611Z,17.83
2018-06-15T23:42:17.518Z,17.83
2018-06-15T23:44:46.339Z,17.81
2018-06-15T23:47:15.220Z,17.81
2018-06-15T23:49:47.198Z,17.82
2018-06-15T23:52:16.100Z,17.79
2018-06-15T23:54:44.960Z,17.77
2018-06-15T23:57:13.843Z,17.75
2018-06-15T23:59:42.729Z,17.76
